Celsius Mumbai — V7CU2 — position and weather

sailwx.info

Track history (hours):
 
Tides and Currents Weather Stations Pressure Air Temp Water Temp Dewpoint Dewpoint Depression Visibility Wind Speed Wind Dir Waves Ship Positions

Celsius Mumbai

Last reported at 2017-Nov-19 00:18 UTC. Time now 2017-Nov-23 01:48 UTC.
Position S 24°11' W 045°56'.

Length 144 m; draft 6.6 m.

Type: Ship (hazmat cat C). MMSI: 538005324.

Date/timePositionNaut miles runAvg speedWind from/ knotsBaromVisibWave heightAir tempDewpointWater temp
2017-Nov-19 00:18S 24°11' W 045°56'413.2
2017-Nov-19 00:00S 24°09' W 045°60'613.1
2017-Nov-18 23:30S 24°07' W 046°06'713.0
2017-Nov-18 23:00S 24°06' W 046°13'713.2
2017-Nov-18 22:30S 24°03' W 046°20'3 6.4
2017-Nov-18 22:00S 23°60' W 046°18'5 0.1
2017-Nov-17 10:48S 23°55' W 046°21'2 6.7
2017-Nov-17 10:27S 23°56' W 046°19'3 7.2
2017-Nov-17 10:00S 23°60' W 046°18'3 6.1
2017-Nov-17 09:30S 24°02' W 046°20'5 9.4
2017-Nov-17 09:00S 24°05' W 046°17'0 0.5
2017-Nov-17 08:30S 24°05' W 046°17'0 0.0
2017-Nov-17 07:57S 24°05' W 046°17'0 0.1
2017-Nov-17 07:30S 24°05' W 046°17'0 0.1
2017-Nov-17 06:57S 24°05' W 046°17'0 0.0
2017-Nov-17 06:30S 24°05' W 046°17'0 0.1
2017-Nov-17 05:57S 24°05' W 046°17'0 0.0
2017-Nov-17 05:27S 24°05' W 046°17'0 0.1
2017-Nov-17 04:48S 24°05' W 046°17'0 0.3
2017-Nov-17 04:30S 24°06' W 046°17'0 0.1
2017-Nov-17 03:57S 24°06' W 046°17'0 0.1
2017-Nov-17 03:30S 24°06' W 046°17'0 0.1
2017-Nov-17 03:00S 24°06' W 046°17'0 0.1
2017-Nov-17 02:27S 24°06' W 046°17'0 0.1
2017-Nov-17 02:00S 24°06' W 046°17'0 0.1
2017-Nov-17 01:30S 24°06' W 046°17'0 0.1
2017-Nov-17 01:00S 24°06' W 046°17'0 0.1
2017-Nov-17 00:30S 24°06' W 046°17'0 0.1
2017-Nov-17 00:00S 24°06' W 046°17'0 0.3
2017-Nov-16 23:24S 24°05' W 046°17'0 0.3
2017-Nov-16 23:00S 24°06' W 046°17'0 0.1
2017-Nov-16 22:27S 24°06' W 046°17'0 0.0
2017-Nov-16 22:00S 24°06' W 046°17'0 0.1
2017-Nov-16 21:30S 24°06' W 046°17'0 0.2
2017-Nov-16 21:00S 24°06' W 046°17'0 0.1
2017-Nov-16 20:27S 24°05' W 046°17'0 0.0
2017-Nov-16 19:57S 24°05' W 046°17'0 0.0
2017-Nov-16 19:27S 24°05' W 046°17'0 0.0
2017-Nov-16 18:57S 24°05' W 046°17'0 0.0
2017-Nov-16 18:30S 24°05' W 046°17'0 0.0
2017-Nov-16 17:57S 24°05' W 046°17'0 0.0
2017-Nov-16 17:27S 24°05' W 046°17'0 0.0
2017-Nov-16 17:00S 24°05' W 046°17'0 0.0
2017-Nov-16 16:30S 24°05' W 046°17'0 0.0
2017-Nov-16 15:57S 24°05' W 046°17'0 0.0
2017-Nov-16 15:30S 24°05' W 046°17'0 0.0
2017-Nov-16 15:00S 24°05' W 046°17'0 0.0
2017-Nov-16 14:30S 24°05' W 046°17'0 0.0
2017-Nov-16 13:57S 24°05' W 046°17'0 0.0
2017-Nov-16 13:30S 24°05' W 046°17'0 0.0
2017-Nov-16 12:57S 24°05' W 046°17'0 0.0
2017-Nov-16 12:30S 24°05' W 046°17'0 0.0
2017-Nov-16 11:57S 24°05' W 046°17'0 0.0
2017-Nov-16 11:27S 24°05' W 046°17'0 0.0
2017-Nov-16 10:57S 24°05' W 046°17'0 0.0
2017-Nov-16 10:27S 24°05' W 046°17'0 0.0
2017-Nov-16 10:00S 24°05' W 046°17'0 0.0
2017-Nov-16 09:30S 24°05' W 046°17'0 0.0
2017-Nov-16 08:57S 24°05' W 046°17'0 0.0
2017-Nov-16 08:27S 24°05' W 046°17'0 0.0
2017-Nov-16 08:00S 24°05' W 046°17'0 0.0
2017-Nov-16 07:21S 24°05' W 046°17'0 0.0
2017-Nov-16 06:57S 24°05' W 046°17'0 0.0
2017-Nov-16 06:30S 24°05' W 046°17'0 0.0
2017-Nov-16 06:00S 24°05' W 046°17'0 0.0
2017-Nov-16 05:21S 24°05' W 046°17'0 0.0
2017-Nov-16 05:00S 24°05' W 046°17'0 0.0
2017-Nov-16 04:30S 24°05' W 046°17'0 0.0
2017-Nov-16 04:00S 24°05' W 046°17'0 0.0
2017-Nov-16 03:27S 24°05' W 046°17'0 0.0
2017-Nov-16 03:00S 24°05' W 046°17'0 0.0
2017-Nov-16 02:30S 24°05' W 046°17'0 0.0
2017-Nov-16 01:51S 24°05' W 046°17'0 0.0
2017-Nov-16 01:30S 24°05' W 046°17'0 0.0
2017-Nov-16 01:00S 24°05' W 046°17'0 0.0
2017-Nov-16 00:30S 24°05' W 046°17'0 0.0
2017-Nov-16 00:00S 24°05' W 046°17'0 0.0
2017-Nov-15 23:30S 24°05' W 046°17'0 0.0
2017-Nov-15 23:00S 24°05' W 046°17'0 0.0
2017-Nov-15 22:30S 24°05' W 046°17'0 0.0
2017-Nov-15 21:57S 24°05' W 046°17'0 0.0
2017-Nov-15 21:30S 24°05' W 046°17'0 0.0
2017-Nov-15 21:00S 24°05' W 046°17'0 0.0
2017-Nov-15 20:27S 24°05' W 046°17'0 0.0
2017-Nov-15 19:54S 24°05' W 046°17'0 0.0
2017-Nov-15 19:30S 24°05' W 046°17'0 0.0
2017-Nov-15 19:00S 24°05' W 046°17'0 0.0
2017-Nov-15 18:27S 24°05' W 046°17'0 0.0
2017-Nov-15 17:57S 24°05' W 046°17'0 0.0
2017-Nov-15 17:24S 24°05' W 046°17'0 0.0
2017-Nov-15 17:00S 24°05' W 046°17'0 0.0
2017-Nov-15 16:30S 24°05' W 046°17'0 0.0
2017-Nov-15 15:57S 24°05' W 046°17'0 0.0
2017-Nov-15 15:30S 24°05' W 046°17'0 0.0
2017-Nov-15 14:57S 24°05' W 046°17'0 0.0
2017-Nov-15 14:27S 24°05' W 046°17'0 0.0
2017-Nov-15 13:57S 24°05' W 046°17'0 0.0
2017-Nov-15 13:30S 24°05' W 046°17'0 0.0
2017-Nov-15 13:00S 24°05' W 046°17'0 0.0
2017-Nov-15 12:30S 24°05' W 046°17'0 0.0
2017-Nov-15 11:51S 24°05' W 046°17'0 0.0
2017-Nov-15 11:30S 24°05' W 046°17'0 0.0
2017-Nov-15 10:57S 24°05' W 046°17'0 0.0
2017-Nov-15 10:27S 24°05' W 046°17'0 0.0
2017-Nov-15 10:00S 24°05' W 046°17'0 0.0
2017-Nov-15 09:30S 24°05' W 046°17'0 0.0
2017-Nov-15 09:00S 24°05' W 046°17'0 0.0
2017-Nov-15 08:30S 24°05' W 046°17'0 0.0
2017-Nov-15 08:00S 24°05' W 046°17'0 0.0
2017-Nov-15 07:24S 24°05' W 046°17'0 0.0
2017-Nov-15 07:00S 24°05' W 046°17'0 0.0
2017-Nov-15 06:21S 24°05' W 046°17'0 0.0
2017-Nov-15 06:00S 24°05' W 046°17'0 0.0
2017-Nov-15 05:30S 24°05' W 046°17'0 0.0
2017-Nov-15 04:57S 24°05' W 046°17'0 0.0
2017-Nov-15 04:30S 24°05' W 046°17'0 0.0
2017-Nov-15 03:54S 24°05' W 046°17'0 0.0
2017-Nov-15 03:27S 24°05' W 046°17'0 0.0
2017-Nov-15 03:00S 24°05' W 046°17'0 0.0
2017-Nov-15 02:27S 24°05' W 046°17'0 0.0
2017-Nov-15 01:57S 24°05' W 046°17'0 0.0
2017-Nov-15 01:30S 24°05' W 046°17'0 0.0
2017-Nov-15 01:00S 24°05' W 046°17'0 0.0
2017-Nov-15 00:24S 24°05' W 046°17'0 0.0
2017-Nov-15 00:00S 24°05' W 046°17'0 0.0
2017-Nov-14 23:30S 24°05' W 046°17'0 0.0
2017-Nov-14 22:57S 24°05' W 046°17'0 0.0
2017-Nov-14 22:30S 24°05' W 046°17'0 0.0
2017-Nov-14 22:00S 24°05' W 046°17'0 0.1
2017-Nov-14 21:27S 24°05' W 046°17'0 0.0
2017-Nov-14 20:54S 24°05' W 046°17'0 0.0
2017-Nov-14 20:30S 24°05' W 046°17'0 0.0
2017-Nov-14 19:57S 24°05' W 046°17'0 0.0
2017-Nov-14 19:27S 24°05' W 046°17'0 0.1
2017-Nov-14 18:57S 24°05' W 046°17'0 0.0
2017-Nov-14 18:27S 24°05' W 046°17'0 0.0
2017-Nov-14 17:57S 24°05' W 046°17'0 0.0
2017-Nov-14 17:27S 24°05' W 046°17'0 0.0
2017-Nov-14 16:57S 24°05' W 046°17'0 0.0
2017-Nov-14 16:24S 24°05' W 046°17'0 0.0
2017-Nov-14 15:57S 24°05' W 046°17'0 0.0
2017-Nov-14 15:30S 24°05' W 046°17'0 0.0
2017-Nov-14 14:57S 24°05' W 046°17'0 0.0
2017-Nov-14 14:27S 24°05' W 046°17'0 0.0
2017-Nov-14 14:00S 24°05' W 046°17'0 0.0
2017-Nov-14 13:30S 24°05' W 046°17'0 0.0
2017-Nov-14 13:00S 24°05' W 046°17'0 0.0
2017-Nov-14 12:27S 24°05' W 046°17'0 0.0
2017-Nov-14 12:00S 24°05' W 046°17'0 0.0
2017-Nov-14 11:27S 24°05' W 046°17'0 0.0
2017-Nov-14 11:00S 24°05' W 046°17'0 0.0
2017-Nov-14 10:27S 24°05' W 046°17'0 0.0
2017-Nov-14 10:00S 24°05' W 046°17'0 0.0
2017-Nov-14 09:27S 24°05' W 046°17'0 0.0
2017-Nov-14 08:57S 24°05' W 046°17'0 0.0
2017-Nov-14 08:30S 24°05' W 046°17'0 0.0
2017-Nov-14 07:57S 24°05' W 046°17'0 0.0
2017-Nov-14 07:27S 24°05' W 046°17'0 0.0
2017-Nov-14 07:00S 24°05' W 046°17'0 0.0
2017-Nov-14 06:24S 24°05' W 046°17'0 0.0
2017-Nov-14 06:00S 24°05' W 046°17'0 0.0
2017-Nov-14 05:30S 24°05' W 046°17'0 0.1
2017-Nov-14 04:54S 24°05' W 046°17'0 1.1
2017-Nov-14 04:30S 24°05' W 046°16'2 4.8
2017-Nov-14 04:00S 24°04' W 046°14'510.3
2017-Nov-14 03:30S 24°05' W 046°08'  
Track history (hours):
 
Tides and Currents Weather Stations Pressure Air Temp Water Temp Dewpoint Dewpoint Depression Visibility Wind Speed Wind Dir Waves Ship Positions

Celsius Mumbai

Last reported at 2017-Nov-19 00:18 UTC. Time now 2017-Nov-23 01:48 UTC.
Position S 24°11' W 045°56'.

Length 144 m; draft 6.6 m.

Type: Ship (hazmat cat C). MMSI: 538005324.

Date/timePositionNaut miles runAvg speedWind from/ knotsBaromVisibWave heightAir tempDewpointWater temp
2017-Nov-19 00:18S 24°11' W 045°56'413.2
2017-Nov-19 00:00S 24°09' W 045°60'613.1
2017-Nov-18 23:30S 24°07' W 046°06'713.0
2017-Nov-18 23:00S 24°06' W 046°13'713.2
2017-Nov-18 22:30S 24°03' W 046°20'3 6.4
2017-Nov-18 22:00S 23°60' W 046°18'5 0.1
2017-Nov-17 10:48S 23°55' W 046°21'2 6.7
2017-Nov-17 10:27S 23°56' W 046°19'3 7.2
2017-Nov-17 10:00S 23°60' W 046°18'3 6.1
2017-Nov-17 09:30S 24°02' W 046°20'5 9.4
2017-Nov-17 09:00S 24°05' W 046°17'0 0.5
2017-Nov-17 08:30S 24°05' W 046°17'0 0.0
2017-Nov-17 07:57S 24°05' W 046°17'0 0.1
2017-Nov-17 07:30S 24°05' W 046°17'0 0.1
2017-Nov-17 06:57S 24°05' W 046°17'0 0.0
2017-Nov-17 06:30S 24°05' W 046°17'0 0.1
2017-Nov-17 05:57S 24°05' W 046°17'0 0.0
2017-Nov-17 05:27S 24°05' W 046°17'0 0.1
2017-Nov-17 04:48S 24°05' W 046°17'0 0.3
2017-Nov-17 04:30S 24°06' W 046°17'0 0.1
2017-Nov-17 03:57S 24°06' W 046°17'0 0.1
2017-Nov-17 03:30S 24°06' W 046°17'0 0.1
2017-Nov-17 03:00S 24°06' W 046°17'0 0.1
2017-Nov-17 02:27S 24°06' W 046°17'0 0.1
2017-Nov-17 02:00S 24°06' W 046°17'0 0.1
2017-Nov-17 01:30S 24°06' W 046°17'0 0.1
2017-Nov-17 01:00S 24°06' W 046°17'0 0.1
2017-Nov-17 00:30S 24°06' W 046°17'0 0.1
2017-Nov-17 00:00S 24°06' W 046°17'0 0.3
2017-Nov-16 23:24S 24°05' W 046°17'0 0.3
2017-Nov-16 23:00S 24°06' W 046°17'0 0.1
2017-Nov-16 22:27S 24°06' W 046°17'0 0.0
2017-Nov-16 22:00S 24°06' W 046°17'0 0.1
2017-Nov-16 21:30S 24°06' W 046°17'0 0.2
2017-Nov-16 21:00S 24°06' W 046°17'0 0.1
2017-Nov-16 20:27S 24°05' W 046°17'0 0.0
2017-Nov-16 19:57S 24°05' W 046°17'0 0.0
2017-Nov-16 19:27S 24°05' W 046°17'0 0.0
2017-Nov-16 18:57S 24°05' W 046°17'0 0.0
2017-Nov-16 18:30S 24°05' W 046°17'0 0.0
2017-Nov-16 17:57S 24°05' W 046°17'0 0.0
2017-Nov-16 17:27S 24°05' W 046°17'0 0.0
2017-Nov-16 17:00S 24°05' W 046°17'0 0.0
2017-Nov-16 16:30S 24°05' W 046°17'0 0.0
2017-Nov-16 15:57S 24°05' W 046°17'0 0.0
2017-Nov-16 15:30S 24°05' W 046°17'0 0.0
2017-Nov-16 15:00S 24°05' W 046°17'0 0.0
2017-Nov-16 14:30S 24°05' W 046°17'0 0.0
2017-Nov-16 13:57S 24°05' W 046°17'0 0.0
2017-Nov-16 13:30S 24°05' W 046°17'0 0.0
2017-Nov-16 12:57S 24°05' W 046°17'0 0.0
2017-Nov-16 12:30S 24°05' W 046°17'0 0.0
2017-Nov-16 11:57S 24°05' W 046°17'0 0.0
2017-Nov-16 11:27S 24°05' W 046°17'0 0.0
2017-Nov-16 10:57S 24°05' W 046°17'0 0.0
2017-Nov-16 10:27S 24°05' W 046°17'0 0.0
2017-Nov-16 10:00S 24°05' W 046°17'0 0.0
2017-Nov-16 09:30S 24°05' W 046°17'0 0.0
2017-Nov-16 08:57S 24°05' W 046°17'0 0.0
2017-Nov-16 08:27S 24°05' W 046°17'0 0.0
2017-Nov-16 08:00S 24°05' W 046°17'0 0.0
2017-Nov-16 07:21S 24°05' W 046°17'0 0.0
2017-Nov-16 06:57S 24°05' W 046°17'0 0.0
2017-Nov-16 06:30S 24°05' W 046°17'0 0.0
2017-Nov-16 06:00S 24°05' W 046°17'0 0.0
2017-Nov-16 05:21S 24°05' W 046°17'0 0.0
2017-Nov-16 05:00S 24°05' W 046°17'0 0.0
2017-Nov-16 04:30S 24°05' W 046°17'0 0.0
2017-Nov-16 04:00S 24°05' W 046°17'0 0.0
2017-Nov-16 03:27S 24°05' W 046°17'0 0.0
2017-Nov-16 03:00S 24°05' W 046°17'0 0.0
2017-Nov-16 02:30S 24°05' W 046°17'0 0.0
2017-Nov-16 01:51S 24°05' W 046°17'0 0.0
2017-Nov-16 01:30S 24°05' W 046°17'0 0.0
2017-Nov-16 01:00S 24°05' W 046°17'0 0.0
2017-Nov-16 00:30S 24°05' W 046°17'0 0.0
2017-Nov-16 00:00S 24°05' W 046°17'0 0.0
2017-Nov-15 23:30S 24°05' W 046°17'0 0.0
2017-Nov-15 23:00S 24°05' W 046°17'0 0.0
2017-Nov-15 22:30S 24°05' W 046°17'0 0.0
2017-Nov-15 21:57S 24°05' W 046°17'0 0.0
2017-Nov-15 21:30S 24°05' W 046°17'0 0.0
2017-Nov-15 21:00S 24°05' W 046°17'0 0.0
2017-Nov-15 20:27S 24°05' W 046°17'0 0.0
2017-Nov-15 19:54S 24°05' W 046°17'0 0.0
2017-Nov-15 19:30S 24°05' W 046°17'0 0.0
2017-Nov-15 19:00S 24°05' W 046°17'0 0.0
2017-Nov-15 18:27S 24°05' W 046°17'0 0.0
2017-Nov-15 17:57S 24°05' W 046°17'0 0.0
2017-Nov-15 17:24S 24°05' W 046°17'0 0.0
2017-Nov-15 17:00S 24°05' W 046°17'0 0.0
2017-Nov-15 16:30S 24°05' W 046°17'0 0.0
2017-Nov-15 15:57S 24°05' W 046°17'0 0.0
2017-Nov-15 15:30S 24°05' W 046°17'0 0.0
2017-Nov-15 14:57S 24°05' W 046°17'0 0.0
2017-Nov-15 14:27S 24°05' W 046°17'0 0.0
2017-Nov-15 13:57S 24°05' W 046°17'0 0.0
2017-Nov-15 13:30S 24°05' W 046°17'0 0.0
2017-Nov-15 13:00S 24°05' W 046°17'0 0.0
2017-Nov-15 12:30S 24°05' W 046°17'0 0.0
2017-Nov-15 11:51S 24°05' W 046°17'0 0.0
2017-Nov-15 11:30S 24°05' W 046°17'0 0.0
2017-Nov-15 10:57S 24°05' W 046°17'0 0.0
2017-Nov-15 10:27S 24°05' W 046°17'0 0.0
2017-Nov-15 10:00S 24°05' W 046°17'0 0.0
2017-Nov-15 09:30S 24°05' W 046°17'0 0.0
2017-Nov-15 09:00S 24°05' W 046°17'0 0.0
2017-Nov-15 08:30S 24°05' W 046°17'0 0.0
2017-Nov-15 08:00S 24°05' W 046°17'0 0.0
2017-Nov-15 07:24S 24°05' W 046°17'0 0.0
2017-Nov-15 07:00S 24°05' W 046°17'0 0.0
2017-Nov-15 06:21S 24°05' W 046°17'0 0.0
2017-Nov-15 06:00S 24°05' W 046°17'0 0.0
2017-Nov-15 05:30S 24°05' W 046°17'0 0.0
2017-Nov-15 04:57S 24°05' W 046°17'0 0.0
2017-Nov-15 04:30S 24°05' W 046°17'0 0.0
2017-Nov-15 03:54S 24°05' W 046°17'0 0.0
2017-Nov-15 03:27S 24°05' W 046°17'0 0.0
2017-Nov-15 03:00S 24°05' W 046°17'0 0.0
2017-Nov-15 02:27S 24°05' W 046°17'0 0.0
2017-Nov-15 01:57S 24°05' W 046°17'0 0.0
2017-Nov-15 01:30S 24°05' W 046°17'0 0.0
2017-Nov-15 01:00S 24°05' W 046°17'0 0.0
2017-Nov-15 00:24S 24°05' W 046°17'0 0.0
2017-Nov-15 00:00S 24°05' W 046°17'0 0.0
2017-Nov-14 23:30S 24°05' W 046°17'0 0.0
2017-Nov-14 22:57S 24°05' W 046°17'0 0.0
2017-Nov-14 22:30S 24°05' W 046°17'0 0.0
2017-Nov-14 22:00S 24°05' W 046°17'0 0.1
2017-Nov-14 21:27S 24°05' W 046°17'0 0.0
2017-Nov-14 20:54S 24°05' W 046°17'0 0.0
2017-Nov-14 20:30S 24°05' W 046°17'0 0.0
2017-Nov-14 19:57S 24°05' W 046°17'0 0.0
2017-Nov-14 19:27S 24°05' W 046°17'0 0.1
2017-Nov-14 18:57S 24°05' W 046°17'0 0.0
2017-Nov-14 18:27S 24°05' W 046°17'0 0.0
2017-Nov-14 17:57S 24°05' W 046°17'0 0.0
2017-Nov-14 17:27S 24°05' W 046°17'0 0.0
2017-Nov-14 16:57S 24°05' W 046°17'0 0.0
2017-Nov-14 16:24S 24°05' W 046°17'0 0.0
2017-Nov-14 15:57S 24°05' W 046°17'0 0.0
2017-Nov-14 15:30S 24°05' W 046°17'0 0.0
2017-Nov-14 14:57S 24°05' W 046°17'0 0.0
2017-Nov-14 14:27S 24°05' W 046°17'0 0.0
2017-Nov-14 14:00S 24°05' W 046°17'0 0.0
2017-Nov-14 13:30S 24°05' W 046°17'0 0.0
2017-Nov-14 13:00S 24°05' W 046°17'0 0.0
2017-Nov-14 12:27S 24°05' W 046°17'0 0.0
2017-Nov-14 12:00S 24°05' W 046°17'0 0.0
2017-Nov-14 11:27S 24°05' W 046°17'0 0.0
2017-Nov-14 11:00S 24°05' W 046°17'0 0.0
2017-Nov-14 10:27S 24°05' W 046°17'0 0.0
2017-Nov-14 10:00S 24°05' W 046°17'0 0.0
2017-Nov-14 09:27S 24°05' W 046°17'0 0.0
2017-Nov-14 08:57S 24°05' W 046°17'0 0.0
2017-Nov-14 08:30S 24°05' W 046°17'0 0.0
2017-Nov-14 07:57S 24°05' W 046°17'0 0.0
2017-Nov-14 07:27S 24°05' W 046°17'0 0.0
2017-Nov-14 07:00S 24°05' W 046°17'0 0.0
2017-Nov-14 06:24S 24°05' W 046°17'0 0.0
2017-Nov-14 06:00S 24°05' W 046°17'0 0.0
2017-Nov-14 05:30S 24°05' W 046°17'0 0.1
2017-Nov-14 04:54S 24°05' W 046°17'0 1.1
2017-Nov-14 04:30S 24°05' W 046°16'2 4.8
2017-Nov-14 04:00S 24°04' W 046°14'510.3
2017-Nov-14 03:30S 24°05' W 046°08'  

Dump ship's entire track history